Latest Coastal Weather Observations for Proserpine

IDQ60701

Issued at 2:15 pm EST Saturday 25 October 2014 (issued every 10 minutes, with the page automatically refreshed every 10 minutes)

About coastal observations | Map of coastal stations | Coastal observations for QLD | Marine services | Other Formats
Station Details ID: 033247 Name: PROSERPINE AIRPORT Lat: -20.49 Lon: 148.56 Height: 19.7 m
Data from the previous 72 hours. | See also: Recent months at Proserpine
Date/Time
EST
Temp

°C
Wind Pressure Rain
since 9am
mm
Weather Cloud Vis
km
Sea
Height
m
Swell
Dir
 
Speed
knots
Gust
knots
hPa Trend Height
m
Period
s
Dir
25/02:00pm 28.9 ESE 13 17 1016.9 - 0.0 - - 10 - - - -
25/01:30pm 29.7 E 11 16 1017.1 - 0.0 - - 10 - - - -
25/01:00pm 29.4 E 11 16 1017.4 - 0.0 - - 10 - - - -
25/12:30pm 28.4 E 11 16 1018.0 - 0.0 - - 10 - - - -
25/12:00pm 28.6 ESE 10 16 1018.5 - 0.0 - Partly cloudy 10 - - - -
25/11:30am 28.2 ESE 10 15 1019.0 - 0.0 - Partly cloudy 10 - - - -
25/11:00am 27.7 ESE 7 12 1019.4 - 0.0 - - 10 - - - -
25/10:30am 26.1 SE 9 16 1019.6 - 0.0 - Partly cloudy 10 - - - -
25/10:00am 27.0 E 9 13 1020.0 - 0.0 - Partly cloudy 10 - - - -
25/09:30am 26.6 SE 12 19 1020.2 - 0.0 - Partly cloudy 10 - - - -
25/09:00am 26.6 SSE 10 14 1020.4 - 0.0 Fine Mostly cloudy 30 - - - -
25/08:30am 24.2 ESE 8 14 1020.6 - 0.0 - Partly cloudy 10 - - - -
25/08:00am 23.5 ESE 7 10 1020.6 - 0.0 - Partly cloudy 10 - - - -
25/07:30am 23.5 SSE 8 11 1020.4 - 0.0 - - 10 - - - -
25/07:00am 21.8 S 5 8 1020.1 - 0.0 - - 10 - - - -
25/06:30am 18.4 S 5 7 1020.0 - 0.0 - - 10 - - - -
25/06:00am 16.8 SSW 6 6 1019.5 - 0.0 - - 10 - - - -
25/05:30am 15.7 SSW 4 5 1019.1 - 0.0 - - 10 - - - -
25/05:00am 16.3 CALM 0 0 1018.9 - 0.0 - - 10 - - - -
25/04:30am 16.5 SW 1 4 1018.6 - 0.0 - Partly cloudy 10 - - - -
25/04:00am 16.1 SSW 5 6 1018.6 - 0.0 - - 10 - - - -
25/03:30am 16.1 SSW 7 7 1018.5 - 0.0 - - 10 - - - -
25/03:00am 15.9 SSW 5 6 1018.5 - 0.0 - - 10 - - - -
25/02:30am 16.3 SSW 6 6 1018.7 - 0.0 - - 10 - - - -
25/02:00am 16.7 SSW 6 7 1018.9 - 0.0 - - 10 - - - -
25/01:30am 18.2 S 5 6 1019.2 - 0.0 - Partly cloudy 10 - - - -
25/01:00am 19.1 S 6 8 1019.6 - 0.0 - Partly cloudy 10 - - - -
25/12:30am 19.5 SSE 7 9 1020.0 - 0.0 - Partly cloudy 10 - - - -
25/12:00am 19.1 S 7 8 1020.2 - 0.0 - Mostly clear 10 - - - -
 
Date/Time
EST
Temp

°C
Wind Pressure Rain
since 9am
mm
Weather Cloud Vis
km
Sea
Height
m
Swell
Dir
 
Speed
knots
Gust
knots
hPa Trend Height
m
Period
s
Dir
24/11:30pm 18.8 S 5 7 1020.7 - 0.0 - Partly cloudy 10 - - - -
24/11:00pm 17.3 S 2 4 1020.9 - 0.0 - Partly cloudy 10 - - - -
24/10:30pm 17.5 SW 3 4 1021.1 - 0.0 - - 10 - - - -
24/10:00pm 18.2 S 4 5 1021.1 - 0.0 - - 10 - - - -
24/09:30pm 19.7 SE 3 4 1020.8 - 0.0 - Partly cloudy 10 - - - -
24/09:00pm 20.1 ESE 6 8 1020.4 - 0.0 - - 10 - - - -
24/08:30pm 20.6 ESE 7 9 1020.2 - 0.0 - - 10 - - - -
24/08:00pm 19.8 ESE 5 8 1019.8 - 0.0 - - 10 - - - -
24/07:30pm 20.4 E 6 7 1019.5 - 0.0 - - 10 - - - -
24/07:00pm 21.1 E 9 11 1019.3 - 0.0 - - 10 - - - -
24/06:30pm 21.8 E 8 11 1019.1 - 0.0 - - 10 - - - -
24/06:00pm 22.9 ESE 11 14 1018.8 - 0.0 - - 10 - - - -
24/05:30pm 23.7 ESE 12 15 1018.5 - 0.0 - - 10 - - - -
24/05:00pm 24.5 ESE 11 15 1018.2 - 0.0 - - 10 - - - -
24/04:30pm 25.5 ESE 13 17 1018.0 - 0.0 - - 10 - - - -
24/04:00pm 25.7 ESE 14 21 1017.8 - 0.0 - - 10 - - - -
24/03:30pm 26.5 ESE 14 20 1017.7 - 0.0 - - 10 - - - -
24/03:00pm 26.6 ESE 16 20 1017.6 - 0.0 Fine Mostly clear 30 - - - -
24/02:30pm 27.4 E 14 19 1017.7 - 0.0 - - 10 - - - -
24/02:00pm 28.2 E 14 22 1018.0 - 0.0 - - 10 - - - -
24/01:30pm 27.3 E 12 19 1018.4 - 0.0 - - 10 - - - -
24/01:00pm 26.9 E 11 17 1018.6 - 0.0 - - 10 - - - -
24/12:30pm 27.0 ESE 13 22 1019.1 - 0.0 - - 10 - - - -
24/12:00pm 27.0 ESE 13 20 1019.2 - 0.0 - - 10 - - - -
24/11:30am 27.3 SE 13 19 1019.6 - 0.0 - - 10 - - - -
24/11:00am 27.3 SE 13 18 1020.0 - 0.0 - - 10 - - - -
24/10:30am 26.5 SE 11 18 1020.2 - 0.0 - - 10 - - - -
24/10:00am 25.6 ESE 11 17 1020.7 - 0.0 - - 10 - - - -
24/09:30am 25.8 ESE 12 20 1020.8 - 0.0 - - 10 - - - -
24/09:00am 24.5 ESE 12 17 1020.8 - 0.0 Fine Partly cloudy 30 - - - -
24/08:30am 23.7 SE 9 15 1020.9 - 0.0 - Partly cloudy 10 - - - -
24/08:00am 23.8 SSE 9 12 1020.7 - 0.0 - - 10 - - - -
24/07:30am 22.3 S 6 10 1020.5 - 0.0 - - 10 - - - -
24/07:00am 19.4 S 4 5 1020.2 - 0.0 - - 10 - - - -
24/06:30am 16.3 CALM 0 4 1020.1 - 0.0 - - 10 - - - -
24/06:00am 13.4 CALM 0 0 1019.6 - 0.0 - - 10 - - - -
24/05:30am 13.0 CALM 0 0 1019.4 - 0.0 - - 10 - - - -
24/05:00am 13.8 CALM 0 0 1019.0 - 0.0 - - 10 - - - -
24/04:30am 14.6 SSW 4 5 1018.7 - 0.0 - - 10 - - - -
24/04:00am 14.9 SSW 5 6 1018.4 - 0.0 - - 10 - - - -
24/03:30am 15.1 SSW 6 7 1018.5 - 0.0 - - 10 - - - -
24/03:00am 15.1 SSW 5 6 1018.3 - 0.0 - - 10 - - - -
24/02:30am 14.8 SSW 5 7 1018.7 - 0.0 - - 10 - - - -
24/02:00am 15.6 CALM 0 0 1018.8 - 0.0 - - 10 - - - -
24/01:30am 15.8 SSW 1 3 1019.3 - 0.0 - - 10 - - - -
24/01:00am 15.7 SSW 5 6 1019.5 - 0.0 - - 10 - - - -
24/12:30am 15.9 SSW 6 7 1019.9 - 0.0 - - 10 - - - -
24/12:00am 16.3 SSW 6 7 1020.1 - 0.0 - - 10 - - - -
 
Date/Time
EST
Temp

°C
Wind Pressure Rain
since 9am
mm
Weather Cloud Vis
km
Sea
Height
m
Swell
Dir
 
Speed
knots
Gust
knots
hPa Trend Height
m
Period
s
Dir
23/11:30pm 16.7 SSW 6 7 1020.5 - 0.0 - - 10 - - - -
23/11:00pm 17.2 SSW 5 6 1020.8 - 0.0 - - 10 - - - -
23/10:30pm 18.0 SSW 5 6 1020.8 - 0.0 - Partly cloudy 10 - - - -
23/10:00pm 18.4 S 6 7 1020.6 - 0.0 - Partly cloudy 10 - - - -
23/09:30pm 18.7 SSW 7 8 1020.6 - 0.0 - - 10 - - - -
23/09:00pm 18.8 SSW 6 7 1020.0 - 0.0 - Mostly clear 10 - - - -
23/08:30pm 20.1 S 4 6 1019.7 - 0.0 - Partly cloudy 10 - - - -
23/08:00pm 19.7 SSW 4 5 1019.5 - 0.0 - Partly cloudy 10 - - - -
23/07:30pm 19.9 SE 3 4 1019.3 - 0.0 - - 10 - - - -
23/07:00pm 20.4 E 5 7 1019.1 - 0.0 - - 10 - - - -
23/06:30pm 21.3 E 7 8 1018.7 - 0.0 - - 10 - - - -
23/06:00pm 22.4 E 10 13 1018.2 - 0.0 - - 10 - - - -
23/05:30pm 23.4 E 11 16 1017.9 - 0.0 - - 10 - - - -
23/05:00pm 24.0 E 14 20 1017.4 - 0.0 - - 10 - - - -
23/04:30pm 24.6 E 14 19 1017.2 - 0.0 - - 10 - - - -
23/04:00pm 24.9 E 16 22 1016.9 - 0.0 - - 10 - - - -
23/03:30pm 25.2 ESE 17 23 1016.7 - 0.0 - - 10 - - - -
23/03:00pm 25.7 ESE 17 25 1016.7 - 0.0 Smoke Mostly clear 20 - - - -
23/02:30pm 26.5 E 17 23 1017.0 - 0.0 - - 10 - - - -
23/02:11pm 26.7 E 17 28 1017.1 - 0.0 - - 10 - - - -
23/02:00pm 26.3 ESE 17 25 1017.2 - 0.0 - - 10 - - - -
23/01:30pm 27.4 E 15 23 1017.3 - 0.0 - - 10 - - - -
23/01:00pm 26.8 E 17 24 1017.8 - 0.0 - - 10 - - - -
23/12:30pm 27.4 E 16 23 1018.2 - 0.0 - - 10 - - - -
23/12:00pm 28.0 ESE 15 23 1018.6 - 0.0 - - 10 - - - -
23/11:30am 28.3 ESE 17 23 1019.1 - 0.0 - - 10 - - - -
23/11:00am 26.7 ESE 18 23 1019.4 - 0.0 - - 10 - - - -
23/10:39am 27.3 ESE 16 27 1019.6 - 0.0 - - 10 - - - -
23/10:30am 26.5 ESE 16 22 1019.8 - 0.0 - - 10 - - - -
23/10:18am 26.5 ESE 16 26 1019.9 - 0.0 - Partly cloudy 10 - - - -
23/10:00am 26.3 SE 17 22 1020.0 - 0.0 - - 10 - - - -
23/09:30am 25.6 ESE 15 21 1020.2 - 0.0 - - 10 - - - -
23/09:00am 25.7 ESE 15 23 1020.0 - 0.0 Fine Mostly clear 30 - - - -
23/08:30am 23.9 SE 17 23 1020.1 - 0.0 - - 10 - - - -
23/08:00am 24.9 SE 14 21 1019.9 - 0.0 - - 10 - - - -
23/07:30am 23.1 S 11 14 1019.8 - 0.0 - - 10 - - - -
23/07:00am 21.6 S 9 12 1019.6 - 0.0 - - 10 - - - -
23/06:30am 20.2 S 5 7 1019.3 - 0.0 - - 10 - - - -
23/06:00am 18.0 S 6 7 1019.0 - 0.0 - - 10 - - - -
23/05:30am 17.3 S 7 9 1019.1 - 0.0 - - 10 - - - -
23/05:00am 17.1 S 6 8 1018.8 - 0.0 - - 10 - - - -
23/04:30am 17.8 S 5 6 1018.7 - 0.0 - - 10 - - - -
23/04:00am 18.8 S 7 8 1018.6 - 0.0 - - 10 - - - -
23/03:30am 18.7 S 7 10 1018.8 - 0.0 - - 10 - - - -
23/03:00am 17.9 S 6 8 1018.7 - 0.0 - - 10 - - - -
23/02:30am 17.9 S 5 7 1019.0 - 0.0 - Partly cloudy 10 - - - -
23/02:00am 17.2 S 5 6 1019.3 - 0.0 - - 10 - - - -
23/01:30am 17.7 SSW 5 5 1019.7 - 0.0 - Partly cloudy 10 - - - -
23/01:00am 19.4 S 7 9 1020.0 - 0.0 - Partly cloudy 10 - - - -
23/12:30am 19.9 S 6 8 1020.5 - 0.0 - Partly cloudy 10 - - - -
23/12:00am 20.1 S 7 9 1020.5 - 0.0 - Cloudy 10 - - - -
 
Date/Time
EST
Temp

°C
Wind Pressure Rain
since 9am
mm
Weather Cloud Vis
km
Sea
Height
m
Swell
Dir
 
Speed
knots
Gust
knots
hPa Trend Height
m
Period
s
Dir
22/11:30pm 20.5 S 8 9 1021.0 - 0.0 - Partly cloudy 10 - - - -
22/11:00pm 20.6 S 7 11 1021.0 - 0.0 - Partly cloudy 10 - - - -
22/10:30pm 21.4 SE 9 11 1021.0 - 0.0 - Partly cloudy 10 - - - -
22/10:00pm 21.5 ESE 10 15 1020.9 - 0.0 - Partly cloudy 10 - - - -
22/09:30pm 21.4 ESE 9 11 1020.7 - 0.0 - Partly cloudy 10 - - - -
22/09:00pm 21.6 ESE 9 14 1020.3 - 0.0 - Mostly clear 10 - - - -
22/08:30pm 22.0 ESE 11 18 1020.4 - 0.0 - Partly cloudy 10 - - - -
22/08:00pm 22.1 ESE 12 17 1020.2 - 0.0 - Partly cloudy 10 - - - -
22/07:30pm 22.4 ESE 12 20 1019.8 - 0.0 - Partly cloudy 10 - - - -
22/07:00pm 22.0 ESE 12 17 1019.7 - 0.0 - Partly cloudy 10 - - - -
22/06:30pm 22.3 ESE 10 13 1019.4 - 0.0 - - 10 - - - -
22/06:00pm 22.8 ESE 13 17 1019.0 - 0.0 - - 10 - - - -
22/05:30pm 23.5 ESE 14 21 1018.8 - 0.0 - - 10 - - - -
22/05:00pm 24.6 ESE 13 20 1018.5 - 0.0 - - 10 - - - -
22/04:30pm 25.2 ESE 15 22 1018.3 - 0.0 - - 10 - - - -
22/04:00pm 26.0 E 16 22 1018.1 - 0.0 - - 10 - - - -
22/03:30pm 26.4 E 16 23 1017.9 - 0.0 - - 10 - - - -
22/03:00pm 26.4 E 17 24 1017.9 - 0.0 Fine Mostly clear 20 - - - -
22/02:30pm 26.8 E 18 25 1018.1 - 0.0 - - 10 - - - -

Other Formats:

Comma delimited format used in spreadsheet applications
http://www.bom.gov.au/fwo/IDQ60701/IDQ60701.94365.axf

JavaScript Object Notation format (JSON) in row-major order
http://www.bom.gov.au/fwo/IDQ60701/IDQ60701.94365.json